• Join FlightAware (Why Join?)
  • Login
  • US Flag 
09:08AM EDT


 

Airport Tracker/Info


-or-


 

Live Flight TrackerFlight Track Log ✈ KFS915 ✈ 28-Jun-2013 ✈ KLRD - MMQT / QRO

Flight Track Log - Related Links

Times and Time Zones

All times are in EDT time to prevent confusion due to time zone crossing. See the KFS915 flight status page for this flight to view local times or setup timezone preferences in your user account.

Time Position Orientation Groundspeed Altitude Reporting Facility
EDT Latitude Longitude Course Direction KTS MPH feet Rate Location/Type
04:26AM 27.5053 -99.4617 169° South 184 212 2,000  Level Houston Center
04:27AM 27.4422 -99.4475 169° South 218 251 4,600 2,280 Climbing Houston Center
04:28AM 27.3706 -99.4314 169° South 247 284 6,600 2,400 Climbing Houston Center
04:29AM 27.2906 -99.4122 168° South 278 320 9,500 2,280 Climbing Houston Center
04:30AM 27.2092 -99.3925 168° South 291 335 11,300 1,680 Climbing Houston Center
04:31AM 27.1194 -99.3711 168° South 308 354 13,000 1,920 Climbing Houston Center
04:32AM 27.0208 -99.3503 169° South 347 399 15,200 2,160 Climbing Houston Center
04:33AM 26.9242 -99.3283 169° South 354 407 17,400 1,920 Climbing Houston Center
04:34AM 26.8253 -99.3067 169° South 359 413 19,100 1,680 Climbing Houston Center
04:35AM 26.7203 -99.2942 174° South 375 432 20,800 1,740 Climbing Houston Center
04:36AM 26.6131 -99.2817 174° South 383 441 22,700 1,860 Climbing Houston Center
04:38AM 26.4959 -99.2830 181° South  Level FlightAware Approximate
04:45AM 25.7868 -99.2025 174° South  Level FlightAware Approximate
04:46AM 25.6856 -99.1902 174° South  Level FlightAware Approximate
04:47AM 25.5843 -99.1780 174° South  Level FlightAware Approximate
04:48AM 25.4830 -99.1658 174° South  Level FlightAware Approximate
04:49AM 25.3817 -99.1536 174° South  Level FlightAware Approximate
04:50AM 25.2803 -99.1415 174° South  Level FlightAware Approximate
04:51AM 25.1790 -99.1293 174° South  Level FlightAware Approximate
04:52AM 25.0777 -99.1172 174° South  Level FlightAware Approximate
04:53AM 24.9764 -99.1051 174° South  Level FlightAware Approximate
04:54AM 24.8752 -99.0921 173° South  Level FlightAware Approximate
04:55AM 24.7741 -99.0784 173° South  Level FlightAware Approximate
04:56AM 24.6729 -99.0647 173° South  Level FlightAware Approximate
04:57AM 24.5718 -99.0510 173° South  Level FlightAware Approximate
04:58AM 24.4706 -99.0374 173° South  Level FlightAware Approximate
04:59AM 24.3695 -99.0238 173° South  Level FlightAware Approximate
05:00AM 24.2682 -99.0114 174° South  Level FlightAware Approximate
05:01AM 24.1668 -99.0004 174° South  Level FlightAware Approximate
05:02AM 24.0654 -98.9894 174° South  Level FlightAware Approximate
05:03AM 23.9640 -98.9785 174° South  Level FlightAware Approximate
05:04AM 23.8626 -98.9675 174° South  Level FlightAware Approximate
05:05AM 23.7612 -98.9566 174° South  Level FlightAware Approximate
05:06AM 23.6622 -98.9655 201° Southwest  Level FlightAware Approximate
05:07AM 23.5668 -99.0046 201° Southwest  Level FlightAware Approximate
05:08AM 23.4714 -99.0436 201° Southwest  Level FlightAware Approximate
05:09AM 23.3759 -99.0826 201° Southwest  Level FlightAware Approximate
05:10AM 23.2815 -99.1242 201° Southwest  Level FlightAware Approximate
05:11AM 23.1862 -99.1633 201° Southwest  Level FlightAware Approximate
05:12AM 23.0908 -99.2024 201° Southwest  Level FlightAware Approximate
05:13AM 22.9954 -99.2413 201° Southwest  Level FlightAware Approximate
05:14AM 22.9000 -99.2803 201° Southwest  Level FlightAware Approximate
05:15AM 22.8046 -99.3191 201° Southwest  Level FlightAware Approximate
05:16AM 22.7092 -99.3579 201° Southwest  Level FlightAware Approximate
05:17AM 22.6138 -99.3967 201° Southwest  Level FlightAware Approximate
05:18AM 22.5184 -99.4354 201° Southwest  Level FlightAware Approximate
05:19AM 22.4230 -99.4740 201° Southwest  Level FlightAware Approximate
05:20AM 22.3274 -99.5124 200° South  Level FlightAware Approximate
05:21AM 22.2284 -99.5363 209° Southwest  Level FlightAware Approximate
05:22AM 22.1383 -99.5872 197° South  Level FlightAware Approximate
05:23AM 22.0409 -99.6197 197° South  Level FlightAware Approximate
05:24AM 21.9438 -99.6527 202° Southwest  Level FlightAware Approximate
05:25AM 21.8494 -99.6941 202° Southwest  Level FlightAware Approximate
05:26AM 21.7549 -99.7354 202° Southwest  Level FlightAware Approximate
05:27AM 21.6601 -99.7755 199° South  Level FlightAware Approximate
05:28AM 21.5641 -99.8120 199° South  Level FlightAware Approximate
05:29AM 21.4680 -99.8485 199° South  Level FlightAware Approximate
05:30AM 21.3719 -99.8849 199° South  Level FlightAware Approximate
05:31AM 21.2758 -99.9213 199° South  Level FlightAware Approximate
05:32AM 21.1801 -99.9588 203° Southwest  Level FlightAware Approximate
05:33AM 21.0860 -100.0007 203° Southwest  Level FlightAware Approximate
05:34AM 20.9913 -100.0411 201° Southwest  Level FlightAware Approximate
05:35AM 20.8964 -100.0807 201° Southwest  Level FlightAware Approximate
05:36AM 20.8002 -100.1166 197° South  Level FlightAware Approximate
05:37AM 20.7029 -100.1490 197° South  Level FlightAware Approximate
05:38AM 20.6167 -100.1914 270° West  Level FlightAware Approximate
05:39AM 20.6173 -100.1857 270° West  Level Estimated
05:40AM 20.6173 -100.1857 270° West  Level Estimated
05:41AM 20.6173 -100.1857 270° West  Level Estimated
05:42AM 20.6173 -100.1857 270° West  Level Estimated
05:43AM 20.6173 -100.1857 270° West  Level Estimated
05:44AM 20.6173 -100.1857 270° West  Level Estimated
05:45AM 20.6173 -100.1857 270° West  Level Estimated
05:46AM 20.6173 -100.1857 270° West  Level Estimated
05:47AM 20.6173 -100.1857 270° West  Level Estimated
05:48AM 20.6173 -100.1857 270° West  Level Estimated
05:49AM 20.6173 -100.1857 270° West  Level Estimated
05:50AM 20.6173 -100.1857 270° West  Level Estimated
05:51AM 20.6173 -100.1857 270° West  Level Estimated
05:52AM 20.6173 -100.1857 270° West  Level Estimated
05:53AM 20.6173 -100.1857 270° West  Level Estimated
05:54AM 20.6173 -100.1857 270° West  Level Estimated